sensor_id;sensor_type;location;lat;lon;timestamp;P1;durP1;ratioP1;P2;durP2;ratioP2
76758;SDS011;65701;45.588;5.186;2024-01-30T05:28:41;23.75;;;19.00;;
76758;SDS011;65701;45.588;5.186;2024-01-30T05:31:09;17.50;;;15.75;;
76758;SDS011;65701;45.588;5.186;2024-01-30T05:33:35;17.25;;;16.50;;
76758;SDS011;65701;45.588;5.186;2024-01-30T05:36:00;21.75;;;19.50;;
76758;SDS011;65701;45.588;5.186;2024-01-30T05:38:26;22.25;;;20.75;;
76758;SDS011;65701;45.588;5.186;2024-01-30T05:40:52;18.00;;;18.00;;
76758;SDS011;65701;45.588;5.186;2024-01-30T05:43:17;23.00;;;18.75;;
76758;SDS011;65701;45.588;5.186;2024-01-30T05:45:43;22.00;;;21.25;;
76758;SDS011;65701;45.588;5.186;2024-01-30T05:48:08;19.50;;;19.25;;
76758;SDS011;65701;45.588;5.186;2024-01-30T05:50:34;23.50;;;18.75;;
76758;SDS011;65701;45.588;5.186;2024-01-30T05:52:59;19.00;;;17.50;;
76758;SDS011;65701;45.588;5.186;2024-01-30T05:55:25;22.75;;;19.50;;
76758;SDS011;65701;45.588;5.186;2024-01-30T05:57:50;20.75;;;19.00;;
76758;SDS011;65701;45.588;5.186;2024-01-30T06:00:17;13.50;;;13.50;;
76758;SDS011;65701;45.588;5.186;2024-01-30T06:02:43;22.00;;;21.00;;
76758;SDS011;65701;45.588;5.186;2024-01-30T06:05:09;20.25;;;19.50;;
76758;SDS011;65701;45.588;5.186;2024-01-30T06:07:35;22.25;;;19.00;;
76758;SDS011;65701;45.588;5.186;2024-01-30T06:10:00;21.00;;;20.25;;
76758;SDS011;65701;45.588;5.186;2024-01-30T06:12:27;24.50;;;19.00;;
76758;SDS011;65701;45.588;5.186;2024-01-30T06:14:53;20.75;;;19.00;;
76758;SDS011;65701;45.588;5.186;2024-01-30T06:17:21;25.50;;;20.50;;
76758;SDS011;65701;45.588;5.186;2024-01-30T06:19:47;25.25;;;20.75;;
76758;SDS011;65701;45.588;5.186;2024-01-30T06:22:13;30.00;;;22.00;;
76758;SDS011;65701;45.588;5.186;2024-01-30T06:24:38;28.00;;;21.75;;
76758;SDS011;65701;45.588;5.186;2024-01-30T06:27:04;26.00;;;19.25;;
76758;SDS011;65701;45.588;5.186;2024-01-30T06:29:29;18.25;;;18.00;;
76758;SDS011;65701;45.588;5.186;2024-01-30T06:31:55;20.00;;;17.00;;
76758;SDS011;65701;45.588;5.186;2024-01-30T06:34:21;26.00;;;23.75;;
76758;SDS011;65701;45.588;5.186;2024-01-30T06:36:46;25.50;;;24.00;;
76758;SDS011;65701;45.588;5.186;2024-01-30T06:39:12;38.00;;;32.75;;
76758;SDS011;65701;45.588;5.186;2024-01-30T06:41:37;33.00;;;29.50;;
76758;SDS011;65701;45.588;5.186;2024-01-30T06:44:03;24.25;;;24.25;;
76758;SDS011;65701;45.588;5.186;2024-01-30T06:46:33;32.50;;;26.00;;
76758;SDS011;65701;45.588;5.186;2024-01-30T06:48:59;23.00;;;23.00;;
76758;SDS011;65701;45.588;5.186;2024-01-30T06:51:24;39.75;;;32.50;;
76758;SDS011;65701;45.588;5.186;2024-01-30T06:53:50;43.75;;;33.75;;
76758;SDS011;65701;45.588;5.186;2024-01-30T06:56:15;36.75;;;33.00;;
76758;SDS011;65701;45.588;5.186;2024-01-30T06:58:45;31.00;;;26.50;;
76758;SDS011;65701;45.588;5.186;2024-01-30T07:01:14;33.25;;;29.00;;
76758;SDS011;65701;45.588;5.186;2024-01-30T07:03:40;31.75;;;28.00;;
76758;SDS011;65701;45.588;5.186;2024-01-30T07:06:06;27.00;;;24.25;;
76758;SDS011;65701;45.588;5.186;2024-01-30T07:08:31;28.75;;;27.50;;
76758;SDS011;65701;45.588;5.186;2024-01-30T07:10:57;35.25;;;33.50;;
76758;SDS011;65701;45.588;5.186;2024-01-30T07:13:22;28.50;;;22.75;;
76758;SDS011;65701;45.588;5.186;2024-01-30T07:15:48;34.25;;;27.50;;
76758;SDS011;65701;45.588;5.186;2024-01-30T07:18:13;30.50;;;22.75;;
76758;SDS011;65701;45.588;5.186;2024-01-30T07:20:39;32.75;;;28.75;;
76758;SDS011;65701;45.588;5.186;2024-01-30T07:23:14;27.50;;;26.50;;
76758;SDS011;65701;45.588;5.186;2024-01-30T07:25:41;30.00;;;28.75;;
76758;SDS011;65701;45.588;5.186;2024-01-30T07:28:07;33.50;;;30.50;;
76758;SDS011;65701;45.588;5.186;2024-01-30T07:30:37;23.50;;;22.25;;
76758;SDS011;65701;45.588;5.186;2024-01-30T07:33:03;26.50;;;21.25;;
76758;SDS011;65701;45.588;5.186;2024-01-30T07:35:29;32.25;;;29.75;;
76758;SDS011;65701;45.588;5.186;2024-01-30T07:37:54;31.75;;;25.25;;
76758;SDS011;65701;45.588;5.186;2024-01-30T07:40:20;23.50;;;20.75;;
76758;SDS011;65701;45.588;5.186;2024-01-30T07:42:45;15.50;;;14.75;;
76758;SDS011;65701;45.588;5.186;2024-01-30T07:45:11;27.25;;;20.75;;
76758;SDS011;65701;45.588;5.186;2024-01-30T07:47:37;20.50;;;19.00;;
76758;SDS011;65701;45.588;5.186;2024-01-30T07:50:02;19.50;;;15.00;;
76758;SDS011;65701;45.588;5.186;2024-01-30T07:52:28;21.75;;;21.00;;
76758;SDS011;65701;45.588;5.186;2024-01-30T07:54:54;32.50;;;24.75;;
76758;SDS011;65701;45.588;5.186;2024-01-30T07:57:20;22.00;;;18.75;;
76758;SDS011;65701;45.588;5.186;2024-01-30T07:59:45;19.00;;;18.50;;
76758;SDS011;65701;45.588;5.186;2024-01-30T08:02:14;28.25;;;21.50;;
76758;SDS011;65701;45.588;5.186;2024-01-30T08:04:39;19.75;;;18.50;;
76758;SDS011;65701;45.588;5.186;2024-01-30T08:07:05;20.25;;;18.00;;
76758;SDS011;65701;45.588;5.186;2024-01-30T08:09:30;21.75;;;15.00;;
76758;SDS011;65701;45.588;5.186;2024-01-30T08:11:56;23.67;;;19.67;;
76758;SDS011;65701;45.588;5.186;2024-01-30T08:14:21;26.75;;;20.75;;
76758;SDS011;65701;45.588;5.186;2024-01-30T08:16:47;23.25;;;23.25;;
76758;SDS011;65701;45.588;5.186;2024-01-30T08:19:14;19.25;;;18.25;;
76758;SDS011;65701;45.588;5.186;2024-01-30T08:21:40;20.50;;;17.75;;
76758;SDS011;65701;45.588;5.186;2024-01-30T08:24:06;23.50;;;22.00;;
76758;SDS011;65701;45.588;5.186;2024-01-30T08:26:32;26.75;;;20.00;;
76758;SDS011;65701;45.588;5.186;2024-01-30T08:28:58;20.00;;;20.00;;
76758;SDS011;65701;45.588;5.186;2024-01-30T08:31:24;18.50;;;16.50;;
76758;SDS011;65701;45.588;5.186;2024-01-30T08:33:49;16.00;;;16.00;;
76758;SDS011;65701;45.588;5.186;2024-01-30T08:36:15;23.50;;;20.75;;
76758;SDS011;65701;45.588;5.186;2024-01-30T08:38:41;21.75;;;19.25;;
76758;SDS011;65701;45.588;5.186;2024-01-30T08:41:07;20.75;;;18.25;;
76758;SDS011;65701;45.588;5.186;2024-01-30T08:43:32;19.50;;;18.00;;
76758;SDS011;65701;45.588;5.186;2024-01-30T08:46:01;27.50;;;21.25;;
76758;SDS011;65701;45.588;5.186;2024-01-30T08:48:27;20.50;;;18.00;;
76758;SDS011;65701;45.588;5.186;2024-01-30T08:50:53;23.75;;;19.75;;
76758;SDS011;65701;45.588;5.186;2024-01-30T08:53:18;16.75;;;16.00;;
76758;SDS011;65701;45.588;5.186;2024-01-30T08:55:44;16.50;;;16.50;;
76758;SDS011;65701;45.588;5.186;2024-01-30T08:58:09;24.25;;;18.00;;
76758;SDS011;65701;45.588;5.186;2024-01-30T09:00:35;18.00;;;15.75;;
76758;SDS011;65701;45.588;5.186;2024-01-30T09:03:01;23.25;;;19.00;;
76758;SDS011;65701;45.588;5.186;2024-01-30T09:05:27;16.25;;;14.75;;
76758;SDS011;65701;45.588;5.186;2024-01-30T09:07:52;21.50;;;18.25;;
76758;SDS011;65701;45.588;5.186;2024-01-30T09:10:18;25.25;;;20.50;;
76758;SDS011;65701;45.588;5.186;2024-01-30T09:12:44;22.00;;;18.50;;
76758;SDS011;65701;45.588;5.186;2024-01-30T09:15:10;19.00;;;18.50;;
76758;SDS011;65701;45.588;5.186;2024-01-30T09:17:35;24.00;;;20.75;;
76758;SDS011;65701;45.588;5.186;2024-01-30T09:20:01;21.00;;;21.00;;
76758;SDS011;65701;45.588;5.186;2024-01-30T09:22:26;21.50;;;18.00;;
76758;SDS011;65701;45.588;5.186;2024-01-30T09:24:52;18.00;;;18.00;;
76758;SDS011;65701;45.588;5.186;2024-01-30T09:27:17;21.75;;;18.00;;
76758;SDS011;65701;45.588;5.186;2024-01-30T09:29:43;21.75;;;18.00;;
76758;SDS011;65701;45.588;5.186;2024-01-30T09:32:08;22.25;;;19.75;;
76758;SDS011;65701;45.588;5.186;2024-01-30T09:34:34;19.75;;;16.25;;
76758;SDS011;65701;45.588;5.186;2024-01-30T09:37:00;23.50;;;17.25;;
76758;SDS011;65701;45.588;5.186;2024-01-30T09:39:25;21.00;;;19.00;;
76758;SDS011;65701;45.588;5.186;2024-01-30T09:41:55;15.75;;;15.75;;
76758;SDS011;65701;45.588;5.186;2024-01-30T09:44:27;16.25;;;16.25;;
76758;SDS011;65701;45.588;5.186;2024-01-30T09:46:55;18.50;;;15.75;;
76758;SDS011;65701;45.588;5.186;2024-01-30T09:49:23;21.00;;;17.75;;
76758;SDS011;65701;45.588;5.186;2024-01-30T09:51:50;16.50;;;14.50;;
76758;SDS011;65701;45.588;5.186;2024-01-30T09:54:17;14.75;;;14.75;;
76758;SDS011;65701;45.588;5.186;2024-01-30T09:56:43;20.50;;;17.00;;
76758;SDS011;65701;45.588;5.186;2024-01-30T09:59:09;15.75;;;14.25;;
76758;SDS011;65701;45.588;5.186;2024-01-30T10:01:35;18.50;;;17.75;;
76758;SDS011;65701;45.588;5.186;2024-01-30T10:04:01;13.25;;;13.25;;
76758;SDS011;65701;45.588;5.186;2024-01-30T10:06:27;16.50;;;16.25;;
76758;SDS011;65701;45.588;5.186;2024-01-30T10:08:53;16.75;;;15.50;;
76758;SDS011;65701;45.588;5.186;2024-01-30T10:11:18;13.25;;;12.00;;
76758;SDS011;65701;45.588;5.186;2024-01-30T10:13:44;18.75;;;13.75;;
76758;SDS011;65701;45.588;5.186;2024-01-30T10:16:09;16.50;;;12.75;;
76758;SDS011;65701;45.588;5.186;2024-01-30T10:18:34;13.25;;;12.50;;
76758;SDS011;65701;45.588;5.186;2024-01-30T10:21:00;14.75;;;13.50;;
76758;SDS011;65701;45.588;5.186;2024-01-30T10:23:25;16.75;;;14.25;;
76758;SDS011;65701;45.588;5.186;2024-01-30T10:25:51;13.50;;;11.75;;
76758;SDS011;65701;45.588;5.186;2024-01-30T10:28:17;15.00;;;13.50;;
76758;SDS011;65701;45.588;5.186;2024-01-30T10:30:43;13.00;;;10.25;;
76758;SDS011;65701;45.588;5.186;2024-01-30T10:33:08;16.50;;;14.25;;
76758;SDS011;65701;45.588;5.186;2024-01-30T10:35:34;13.00;;;13.00;;
76758;SDS011;65701;45.588;5.186;2024-01-30T10:38:00;17.50;;;15.00;;
76758;SDS011;65701;45.588;5.186;2024-01-30T10:40:27;17.00;;;13.25;;
76758;SDS011;65701;45.588;5.186;2024-01-30T10:42:53;16.00;;;13.25;;
76758;SDS011;65701;45.588;5.186;2024-01-30T10:45:20;14.75;;;10.75;;
76758;SDS011;65701;45.588;5.186;2024-01-30T10:47:51;12.50;;;12.50;;
76758;SDS011;65701;45.588;5.186;2024-01-30T10:50:21;15.50;;;11.75;;
76758;SDS011;65701;45.588;5.186;2024-01-30T10:52:49;9.75;;;9.75;;
76758;SDS011;65701;45.588;5.186;2024-01-30T10:55:16;12.75;;;11.25;;
76758;SDS011;65701;45.588;5.186;2024-01-30T10:57:43;10.50;;;10.00;;
76758;SDS011;65701;45.588;5.186;2024-01-30T11:00:10;14.75;;;13.50;;
76758;SDS011;65701;45.588;5.186;2024-01-30T11:02:38;12.00;;;12.00;;
76758;SDS011;65701;45.588;5.186;2024-01-30T11:05:05;14.50;;;11.75;;
76758;SDS011;65701;45.588;5.186;2024-01-30T11:07:31;6.25;;;6.25;;
76758;SDS011;65701;45.588;5.186;2024-01-30T11:10:00;13.00;;;10.75;;
76758;SDS011;65701;45.588;5.186;2024-01-30T11:12:28;9.00;;;9.00;;
76758;SDS011;65701;45.588;5.186;2024-01-30T11:15:05;10.75;;;9.50;;
76758;SDS011;65701;45.588;5.186;2024-01-30T11:17:42;11.50;;;11.50;;
76758;SDS011;65701;45.588;5.186;2024-01-30T11:20:12;11.75;;;10.25;;
76758;SDS011;65701;45.588;5.186;2024-01-30T11:22:41;8.50;;;8.00;;
76758;SDS011;65701;45.588;5.186;2024-01-30T11:25:11;9.00;;;6.50;;
76758;SDS011;65701;45.588;5.186;2024-01-30T11:27:38;11.25;;;10.00;;
76758;SDS011;65701;45.588;5.186;2024-01-30T11:30:03;9.25;;;8.50;;
76758;SDS011;65701;45.588;5.186;2024-01-30T11:32:30;9.00;;;9.00;;
76758;SDS011;65701;45.588;5.186;2024-01-30T11:34:55;8.75;;;8.75;;
76758;SDS011;65701;45.588;5.186;2024-01-30T11:37:21;8.25;;;8.25;;
76758;SDS011;65701;45.588;5.186;2024-01-30T11:39:53;7.75;;;7.75;;
76758;SDS011;65701;45.588;5.186;2024-01-30T11:42:19;11.00;;;9.25;;
76758;SDS011;65701;45.588;5.186;2024-01-30T11:44:49;10.25;;;8.50;;
76758;SDS011;65701;45.588;5.186;2024-01-30T11:47:14;9.50;;;9.50;;
76758;SDS011;65701;45.588;5.186;2024-01-30T11:49:41;6.75;;;6.75;;
76758;SDS011;65701;45.588;5.186;2024-01-30T11:52:06;7.50;;;7.00;;
76758;SDS011;65701;45.588;5.186;2024-01-30T11:54:32;9.75;;;8.50;;
76758;SDS011;65701;45.588;5.186;2024-01-30T11:56:57;6.00;;;6.00;;
76758;SDS011;65701;45.588;5.186;2024-01-30T11:59:23;6.00;;;6.00;;
76758;SDS011;65701;45.588;5.186;2024-01-30T12:01:51;7.50;;;6.25;;
76758;SDS011;65701;45.588;5.186;2024-01-30T12:04:17;7.50;;;6.00;;
76758;SDS011;65701;45.588;5.186;2024-01-30T12:06:43;7.25;;;7.25;;
76758;SDS011;65701;45.588;5.186;2024-01-30T12:09:09;8.50;;;8.50;;
76758;SDS011;65701;45.588;5.186;2024-01-30T12:11:46;7.25;;;7.25;;
76758;SDS011;65701;45.588;5.186;2024-01-30T12:14:13;6.50;;;6.50;;
76758;SDS011;65701;45.588;5.186;2024-01-30T12:16:39;6.00;;;6.00;;
76758;SDS011;65701;45.588;5.186;2024-01-30T12:19:06;7.00;;;7.00;;
76758;SDS011;65701;45.588;5.186;2024-01-30T12:21:31;5.75;;;5.25;;
76758;SDS011;65701;45.588;5.186;2024-01-30T12:23:58;7.25;;;5.00;;
76758;SDS011;65701;45.588;5.186;2024-01-30T12:26:25;7.00;;;4.75;;
76758;SDS011;65701;45.588;5.186;2024-01-30T12:28:53;5.50;;;5.50;;
76758;SDS011;65701;45.588;5.186;2024-01-30T12:31:25;9.00;;;7.00;;
76758;SDS011;65701;45.588;5.186;2024-01-30T12:33:52;5.75;;;5.25;;
76758;SDS011;65701;45.588;5.186;2024-01-30T12:36:18;8.00;;;6.75;;
76758;SDS011;65701;45.588;5.186;2024-01-30T12:38:43;5.75;;;4.50;;
76758;SDS011;65701;45.588;5.186;2024-01-30T12:41:09;4.75;;;4.75;;
76758;SDS011;65701;45.588;5.186;2024-01-30T12:43:35;4.50;;;4.00;;
76758;SDS011;65701;45.588;5.186;2024-01-30T12:46:01;3.75;;;3.75;;
76758;SDS011;65701;45.588;5.186;2024-01-30T12:48:28;5.50;;;4.50;;
76758;SDS011;65701;45.588;5.186;2024-01-30T12:50:54;5.50;;;5.50;;
76758;SDS011;65701;45.588;5.186;2024-01-30T12:53:21;5.00;;;5.00;;
76758;SDS011;65701;45.588;5.186;2024-01-30T12:55:47;6.00;;;5.50;;
76758;SDS011;65701;45.588;5.186;2024-01-30T12:58:12;5.50;;;5.50;;
76758;SDS011;65701;45.588;5.186;2024-01-30T13:00:38;4.75;;;3.00;;
76758;SDS011;65701;45.588;5.186;2024-01-30T13:03:03;5.00;;;4.75;;
76758;SDS011;65701;45.588;5.186;2024-01-30T13:05:29;5.50;;;5.50;;
76758;SDS011;65701;45.588;5.186;2024-01-30T13:07:54;5.25;;;5.00;;
76758;SDS011;65701;45.588;5.186;2024-01-30T13:10:22;6.00;;;5.25;;
76758;SDS011;65701;45.588;5.186;2024-01-30T13:12:47;5.00;;;5.00;;
76758;SDS011;65701;45.588;5.186;2024-01-30T13:15:13;8.50;;;6.00;;
76758;SDS011;65701;45.588;5.186;2024-01-30T13:17:39;6.50;;;5.75;;
76758;SDS011;65701;45.588;5.186;2024-01-30T13:20:04;7.00;;;6.25;;
76758;SDS011;65701;45.588;5.186;2024-01-30T13:22:33;6.75;;;4.25;;
76758;SDS011;65701;45.588;5.186;2024-01-30T13:24:59;5.50;;;5.00;;
76758;SDS011;65701;45.588;5.186;2024-01-30T13:27:24;4.00;;;4.00;;
76758;SDS011;65701;45.588;5.186;2024-01-30T13:29:49;4.75;;;4.00;;
76758;SDS011;65701;45.588;5.186;2024-01-30T13:32:15;4.75;;;4.75;;
76758;SDS011;65701;45.588;5.186;2024-01-30T13:34:41;4.75;;;4.75;;
76758;SDS011;65701;45.588;5.186;2024-01-30T13:37:07;7.00;;;5.50;;
76758;SDS011;65701;45.588;5.186;2024-01-30T13:39:32;3.75;;;3.75;;
76758;SDS011;65701;45.588;5.186;2024-01-30T13:41:58;4.00;;;4.00;;
76758;SDS011;65701;45.588;5.186;2024-01-30T13:44:23;6.75;;;4.75;;
76758;SDS011;65701;45.588;5.186;2024-01-30T13:46:49;4.00;;;4.00;;
76758;SDS011;65701;45.588;5.186;2024-01-30T13:49:15;4.50;;;4.50;;
76758;SDS011;65701;45.588;5.186;2024-01-30T13:51:41;3.25;;;3.25;;
76758;SDS011;65701;45.588;5.186;2024-01-30T13:54:07;4.00;;;4.00;;
76758;SDS011;65701;45.588;5.186;2024-01-30T13:56:33;4.50;;;4.00;;
76758;SDS011;65701;45.588;5.186;2024-01-30T13:58:59;4.75;;;4.00;;
76758;SDS011;65701;45.588;5.186;2024-01-30T14:01:26;5.00;;;4.00;;
76758;SDS011;65701;45.588;5.186;2024-01-30T14:03:51;5.75;;;4.75;;
76758;SDS011;65701;45.588;5.186;2024-01-30T14:06:17;5.50;;;3.75;;
76758;SDS011;65701;45.588;5.186;2024-01-30T14:08:43;3.75;;;3.75;;
76758;SDS011;65701;45.588;5.186;2024-01-30T14:11:09;6.25;;;4.75;;
76758;SDS011;65701;45.588;5.186;2024-01-30T14:13:34;3.25;;;3.25;;
76758;SDS011;65701;45.588;5.186;2024-01-30T14:16:00;7.25;;;4.25;;
76758;SDS011;65701;45.588;5.186;2024-01-30T14:18:26;6.50;;;4.75;;
76758;SDS011;65701;45.588;5.186;2024-01-30T14:20:51;5.00;;;5.00;;
76758;SDS011;65701;45.588;5.186;2024-01-30T14:23:17;3.50;;;3.50;;
76758;SDS011;65701;45.588;5.186;2024-01-30T14:25:43;6.50;;;3.25;;
76758;SDS011;65701;45.588;5.186;2024-01-30T14:28:09;5.25;;;4.50;;
76758;SDS011;65701;45.588;5.186;2024-01-30T14:30:35;5.25;;;3.50;;
76758;SDS011;65701;45.588;5.186;2024-01-30T14:33:00;3.50;;;3.50;;
76758;SDS011;65701;45.588;5.186;2024-01-30T14:35:26;6.00;;;3.25;;
76758;SDS011;65701;45.588;5.186;2024-01-30T14:37:52;4.25;;;4.25;;
76758;SDS011;65701;45.588;5.186;2024-01-30T14:40:18;3.75;;;3.75;;
76758;SDS011;65701;45.588;5.186;2024-01-30T14:42:44;7.00;;;4.00;;
76758;SDS011;65701;45.588;5.186;2024-01-30T14:45:10;5.00;;;4.00;;
76758;SDS011;65701;45.588;5.186;2024-01-30T14:47:36;3.50;;;3.50;;
76758;SDS011;65701;45.588;5.186;2024-01-30T14:50:02;4.00;;;4.00;;
76758;SDS011;65701;45.588;5.186;2024-01-30T14:52:30;3.00;;;3.00;;
76758;SDS011;65701;45.588;5.186;2024-01-30T14:54:56;5.50;;;3.00;;
76758;SDS011;65701;45.588;5.186;2024-01-30T14:57:23;3.00;;;3.00;;
76758;SDS011;65701;45.588;5.186;2024-01-30T14:59:51;2.25;;;2.25;;
76758;SDS011;65701;45.588;5.186;2024-01-30T15:02:17;3.25;;;3.25;;
76758;SDS011;65701;45.588;5.186;2024-01-30T15:04:42;4.00;;;4.00;;
76758;SDS011;65701;45.588;5.186;2024-01-30T15:07:08;5.00;;;5.00;;
76758;SDS011;65701;45.588;5.186;2024-01-30T15:09:33;3.00;;;3.00;;
76758;SDS011;65701;45.588;5.186;2024-01-30T15:11:59;4.00;;;3.00;;
76758;SDS011;65701;45.588;5.186;2024-01-30T15:14:25;2.75;;;2.75;;
76758;SDS011;65701;45.588;5.186;2024-01-30T15:16:50;6.75;;;4.25;;
76758;SDS011;65701;45.588;5.186;2024-01-30T15:19:16;4.00;;;4.00;;
76758;SDS011;65701;45.588;5.186;2024-01-30T15:21:41;5.25;;;4.00;;
76758;SDS011;65701;45.588;5.186;2024-01-30T15:24:07;1.50;;;1.50;;
76758;SDS011;65701;45.588;5.186;2024-01-30T15:26:32;3.00;;;3.00;;
76758;SDS011;65701;45.588;5.186;2024-01-30T15:28:58;6.75;;;4.00;;
76758;SDS011;65701;45.588;5.186;2024-01-30T15:31:24;3.75;;;3.75;;
76758;SDS011;65701;45.588;5.186;2024-01-30T15:33:49;4.75;;;4.75;;
76758;SDS011;65701;45.588;5.186;2024-01-30T15:36:14;9.00;;;5.25;;
76758;SDS011;65701;45.588;5.186;2024-01-30T15:38:40;4.25;;;3.25;;
76758;SDS011;65701;45.588;5.186;2024-01-30T15:41:06;3.75;;;3.50;;
76758;SDS011;65701;45.588;5.186;2024-01-30T15:43:31;6.75;;;5.25;;
76758;SDS011;65701;45.588;5.186;2024-01-30T15:45:58;3.50;;;3.50;;
76758;SDS011;65701;45.588;5.186;2024-01-30T15:48:24;7.00;;;6.50;;
76758;SDS011;65701;45.588;5.186;2024-01-30T15:50:50;5.00;;;5.00;;
76758;SDS011;65701;45.588;5.186;2024-01-30T15:53:16;4.50;;;4.50;;
76758;SDS011;65701;45.588;5.186;2024-01-30T15:55:42;7.00;;;5.75;;
76758;SDS011;65701;45.588;5.186;2024-01-30T15:58:07;4.75;;;4.75;;
76758;SDS011;65701;45.588;5.186;2024-01-30T16:00:33;5.00;;;5.00;;
76758;SDS011;65701;45.588;5.186;2024-01-30T16:02:59;5.25;;;5.25;;
76758;SDS011;65701;45.588;5.186;2024-01-30T16:05:25;4.00;;;4.00;;
76758;SDS011;65701;45.588;5.186;2024-01-30T16:07:50;6.00;;;6.00;;
76758;SDS011;65701;45.588;5.186;2024-01-30T16:10:16;9.00;;;4.50;;
76758;SDS011;65701;45.588;5.186;2024-01-30T16:12:42;6.00;;;6.00;;
76758;SDS011;65701;45.588;5.186;2024-01-30T16:15:15;8.00;;;5.00;;
76758;SDS011;65701;45.588;5.186;2024-01-30T16:17:41;5.75;;;5.75;;
76758;SDS011;65701;45.588;5.186;2024-01-30T16:20:07;6.75;;;6.00;;
76758;SDS011;65701;45.588;5.186;2024-01-30T16:22:33;9.25;;;7.00;;
76758;SDS011;65701;45.588;5.186;2024-01-30T16:24:59;9.75;;;7.25;;
76758;SDS011;65701;45.588;5.186;2024-01-30T16:27:24;7.00;;;7.00;;
76758;SDS011;65701;45.588;5.186;2024-01-30T16:29:50;8.25;;;6.50;;
76758;SDS011;65701;45.588;5.186;2024-01-30T16:32:16;11.75;;;8.25;;
76758;SDS011;65701;45.588;5.186;2024-01-30T16:34:41;10.00;;;9.00;;
76758;SDS011;65701;45.588;5.186;2024-01-30T16:37:07;7.50;;;7.50;;
76758;SDS011;65701;45.588;5.186;2024-01-30T16:39:32;11.00;;;7.00;;
76758;SDS011;65701;45.588;5.186;2024-01-30T16:41:58;8.25;;;7.75;;
76758;SDS011;65701;45.588;5.186;2024-01-30T16:44:24;6.00;;;6.00;;
76758;SDS011;65701;45.588;5.186;2024-01-30T16:46:50;10.50;;;10.50;;
76758;SDS011;65701;45.588;5.186;2024-01-30T16:49:15;9.75;;;8.00;;
76758;SDS011;65701;45.588;5.186;2024-01-30T16:51:41;9.00;;;9.00;;
76758;SDS011;65701;45.588;5.186;2024-01-30T16:54:07;11.00;;;9.00;;
76758;SDS011;65701;45.588;5.186;2024-01-30T16:56:33;11.00;;;10.75;;
76758;SDS011;65701;45.588;5.186;2024-01-30T16:58:58;13.50;;;11.00;;
76758;SDS011;65701;45.588;5.186;2024-01-30T17:01:24;39.25;;;31.50;;
76758;SDS011;65701;45.588;5.186;2024-01-30T17:03:50;16.00;;;11.00;;
76758;SDS011;65701;45.588;5.186;2024-01-30T17:06:15;11.50;;;11.25;;
76758;SDS011;65701;45.588;5.186;2024-01-30T17:08:41;11.00;;;10.00;;
76758;SDS011;65701;45.588;5.186;2024-01-30T17:11:06;17.25;;;13.25;;
76758;SDS011;65701;45.588;5.186;2024-01-30T17:13:33;14.25;;;12.25;;
76758;SDS011;65701;45.588;5.186;2024-01-30T17:15:59;12.75;;;10.75;;
76758;SDS011;65701;45.588;5.186;2024-01-30T17:18:25;11.50;;;10.25;;
76758;SDS011;65701;45.588;5.186;2024-01-30T17:20:51;15.25;;;13.75;;
76758;SDS011;65701;45.588;5.186;2024-01-30T17:23:16;13.50;;;12.75;;
76758;SDS011;65701;45.588;5.186;2024-01-30T17:25:42;14.75;;;13.25;;
76758;SDS011;65701;45.588;5.186;2024-01-30T17:28:07;11.50;;;11.25;;
76758;SDS011;65701;45.588;5.186;2024-01-30T17:30:34;16.50;;;14.75;;
76758;SDS011;65701;45.588;5.186;2024-01-30T17:33:02;14.25;;;12.00;;
76758;SDS011;65701;45.588;5.186;2024-01-30T17:35:27;13.25;;;13.00;;
76758;SDS011;65701;45.588;5.186;2024-01-30T17:37:53;20.25;;;17.75;;
76758;SDS011;65701;45.588;5.186;2024-01-30T17:40:18;17.00;;;13.25;;
76758;SDS011;65701;45.588;5.186;2024-01-30T17:42:44;13.75;;;13.75;;
76758;SDS011;65701;45.588;5.186;2024-01-30T17:45:09;24.50;;;20.50;;
76758;SDS011;65701;45.588;5.186;2024-01-30T17:47:35;19.75;;;17.00;;
76758;SDS011;65701;45.588;5.186;2024-01-30T17:50:01;22.50;;;21.75;;
76758;SDS011;65701;45.588;5.186;2024-01-30T17:52:27;31.50;;;26.00;;
76758;SDS011;65701;45.588;5.186;2024-01-30T17:54:54;16.75;;;15.50;;
76758;SDS011;65701;45.588;5.186;2024-01-30T17:57:19;26.75;;;23.75;;
76758;SDS011;65701;45.588;5.186;2024-01-30T17:59:45;16.50;;;13.25;;
76758;SDS011;65701;45.588;5.186;2024-01-30T18:02:11;16.50;;;16.00;;
76758;SDS011;65701;45.588;5.186;2024-01-30T18:04:38;18.25;;;16.75;;
76758;SDS011;65701;45.588;5.186;2024-01-30T18:07:04;17.25;;;17.00;;
76758;SDS011;65701;45.588;5.186;2024-01-30T18:09:30;12.50;;;12.50;;
76758;SDS011;65701;45.588;5.186;2024-01-30T18:11:56;16.75;;;16.25;;
76758;SDS011;65701;45.588;5.186;2024-01-30T18:14:21;18.50;;;16.25;;
76758;SDS011;65701;45.588;5.186;2024-01-30T18:16:47;24.25;;;19.75;;
76758;SDS011;65701;45.588;5.186;2024-01-30T18:19:13;23.25;;;23.00;;
76758;SDS011;65701;45.588;5.186;2024-01-30T18:21:39;25.00;;;25.00;;
76758;SDS011;65701;45.588;5.186;2024-01-30T18:24:05;18.25;;;18.25;;
76758;SDS011;65701;45.588;5.186;2024-01-30T18:26:31;16.00;;;16.00;;
76758;SDS011;65701;45.588;5.186;2024-01-30T18:28:56;19.00;;;16.75;;
76758;SDS011;65701;45.588;5.186;2024-01-30T18:31:22;21.50;;;20.50;;
76758;SDS011;65701;45.588;5.186;2024-01-30T18:33:48;34.50;;;25.50;;
76758;SDS011;65701;45.588;5.186;2024-01-30T18:36:19;32.50;;;28.00;;
76758;SDS011;65701;45.588;5.186;2024-01-30T18:38:46;22.25;;;19.50;;
76758;SDS011;65701;45.588;5.186;2024-01-30T18:41:13;20.50;;;18.25;;
76758;SDS011;65701;45.588;5.186;2024-01-30T18:43:39;22.75;;;19.75;;
76758;SDS011;65701;45.588;5.186;2024-01-30T18:46:04;17.50;;;17.50;;
76758;SDS011;65701;45.588;5.186;2024-01-30T18:48:30;28.25;;;28.25;;
76758;SDS011;65701;45.588;5.186;2024-01-30T18:50:56;30.50;;;28.00;;
76758;SDS011;65701;45.588;5.186;2024-01-30T18:53:21;23.50;;;22.00;;
76758;SDS011;65701;45.588;5.186;2024-01-30T18:55:47;16.50;;;13.25;;
76758;SDS011;65701;45.588;5.186;2024-01-30T18:58:13;29.50;;;25.75;;
76758;SDS011;65701;45.588;5.186;2024-01-30T19:00:39;28.25;;;21.00;;
76758;SDS011;65701;45.588;5.186;2024-01-30T19:03:06;14.00;;;14.00;;
76758;SDS011;65701;45.588;5.186;2024-01-30T19:05:32;16.50;;;15.75;;
76758;SDS011;65701;45.588;5.186;2024-01-30T19:07:59;14.50;;;14.50;;
76758;SDS011;65701;45.588;5.186;2024-01-30T19:10:25;28.25;;;26.25;;
76758;SDS011;65701;45.588;5.186;2024-01-30T19:12:52;21.50;;;17.75;;
76758;SDS011;65701;45.588;5.186;2024-01-30T19:15:18;16.75;;;16.75;;
76758;SDS011;65701;45.588;5.186;2024-01-30T19:17:43;17.50;;;16.25;;
76758;SDS011;65701;45.588;5.186;2024-01-30T19:20:09;18.75;;;16.25;;
76758;SDS011;65701;45.588;5.186;2024-01-30T19:22:35;12.50;;;11.00;;
76758;SDS011;65701;45.588;5.186;2024-01-30T19:25:01;22.25;;;19.50;;
76758;SDS011;65701;45.588;5.186;2024-01-30T19:27:28;26.50;;;21.25;;
76758;SDS011;65701;45.588;5.186;2024-01-30T19:29:54;18.00;;;15.25;;
76758;SDS011;65701;45.588;5.186;2024-01-30T19:32:20;23.75;;;21.75;;
76758;SDS011;65701;45.588;5.186;2024-01-30T19:34:46;27.25;;;23.25;;
76758;SDS011;65701;45.588;5.186;2024-01-30T19:37:11;21.50;;;20.50;;
76758;SDS011;65701;45.588;5.186;2024-01-30T19:39:37;25.00;;;22.75;;
76758;SDS011;65701;45.588;5.186;2024-01-30T19:42:03;21.50;;;21.50;;
76758;SDS011;65701;45.588;5.186;2024-01-30T19:44:29;19.50;;;16.50;;
76758;SDS011;65701;45.588;5.186;2024-01-30T19:46:55;21.25;;;17.75;;
76758;SDS011;65701;45.588;5.186;2024-01-30T19:49:20;19.75;;;14.75;;
76758;SDS011;65701;45.588;5.186;2024-01-30T19:51:46;18.75;;;17.75;;